Ana Sayfa
METAR-TAF:

METAR-TAF

Havaalanları :

Montgomery Field

San Diego, Kaliforniya, Amerika Birleşik Devletleri

Enlem: 32-48-52N, Boylam: 117-08-11W, yükseklik: 128 m

Güncel hava durumu gözlemi

Rapor saat 19:53 UTC de 48 dakika önce yapıldı.
Rüzgar batı/kuzeybatıdan 11 kt
Sıcaklık 17°C
Nem 68%
Basınç 1015 hPa
Görüş mesafesi: 16.1 km
2600 ft yükseklikte az bulutlu
5000 ft yükseklikte parçalı çok bulutlu
6000 ft yükseklikte çok bulutlu

METAR: KMYF 201953Z 29011KT 10SM FEW026 BKN050 OVC060 17/11 A2997 RMK AO2 SLP146 T01670106

Saat: 13:41 (20:41 UTC)


TAF: eksik

4.000'den fazla havaalanı için hava durumu gözlemleri ve tahminleri (METAR ve TAF raporları).

Kullanılabilir istasyonlar harita üzerinde sarı ve kırmızı noktalarla gösterilir.

İstasyonun adını görmek için fareyi noktanın üzerinde gezdirin.

Sonrasında hava gözlem ve tahminlerini görmek için tıklayın.

Haritayı değiştirmek için: yaklaştırmak için siyah artı işaretli yeşil düğmeye ve uzaklaştırmak için de eksi işaretli düğmeye hızla tıklayın; bitişik haritalar için yeşil okları kullanın.


METAR-TAF: